sensor_id;sensor_type;location;lat;lon;timestamp;pressure;altitude;pressure_sealevel;temperature;humidity
77450;BME280;66536;53.150;18.172;2023-11-22T00:00:19;102308.27;;;-3.49;83.53
77450;BME280;66536;53.150;18.172;2023-11-22T00:03:07;102306.18;;;-3.51;83.54
77450;BME280;66536;53.150;18.172;2023-11-22T00:05:34;102305.02;;;-3.55;83.56
77450;BME280;66536;53.150;18.172;2023-11-22T00:08:00;102306.79;;;-3.57;83.72
77450;BME280;66536;53.150;18.172;2023-11-22T00:10:27;102305.84;;;-3.58;83.77
77450;BME280;66536;53.150;18.172;2023-11-22T00:12:54;102302.39;;;-3.60;83.81
77450;BME280;66536;53.150;18.172;2023-11-22T00:15:21;102293.52;;;-3.61;83.79
77450;BME280;66536;53.150;18.172;2023-11-22T00:17:48;102289.42;;;-3.63;84.21
77450;BME280;66536;53.150;18.172;2023-11-22T00:20:14;102284.77;;;-3.64;84.35
77450;BME280;66536;53.150;18.172;2023-11-22T00:22:41;102291.05;;;-3.66;84.32
77450;BME280;66536;53.150;18.172;2023-11-22T00:25:09;102288.33;;;-3.69;84.25
77450;BME280;66536;53.150;18.172;2023-11-22T00:27:35;102292.38;;;-3.72;84.20
77450;BME280;66536;53.150;18.172;2023-11-22T00:30:05;102299.46;;;-3.75;84.33
77450;BME280;66536;53.150;18.172;2023-11-22T00:32:32;102299.53;;;-3.76;84.48
77450;BME280;66536;53.150;18.172;2023-11-22T00:34:59;102298.44;;;-3.78;84.53
77450;BME280;66536;53.150;18.172;2023-11-22T00:37:26;102304.72;;;-3.79;84.84
77450;BME280;66536;53.150;18.172;2023-11-22T00:39:52;102308.54;;;-3.81;84.90
77450;BME280;66536;53.150;18.172;2023-11-22T00:42:19;102318.63;;;-3.84;85.04
77450;BME280;66536;53.150;18.172;2023-11-22T00:44:46;102320.13;;;-3.84;85.30
77450;BME280;66536;53.150;18.172;2023-11-22T00:47:14;102323.97;;;-3.83;85.32
77450;BME280;66536;53.150;18.172;2023-11-22T00:49:43;102330.14;;;-3.85;85.32
77450;BME280;66536;53.150;18.172;2023-11-22T00:52:10;102329.90;;;-3.87;85.40
77450;BME280;66536;53.150;18.172;2023-11-22T00:54:37;102335.21;;;-3.89;86.06
77450;BME280;66536;53.150;18.172;2023-11-22T00:57:04;102338.91;;;-3.89;86.13
77450;BME280;66536;53.150;18.172;2023-11-22T00:59:31;102333.27;;;-3.87;85.92
77450;BME280;66536;53.150;18.172;2023-11-22T01:01:58;102329.89;;;-3.87;86.12
77450;BME280;66536;53.150;18.172;2023-11-22T01:04:26;102330.93;;;-3.88;86.32
77450;BME280;66536;53.150;18.172;2023-11-22T01:06:53;102335.13;;;-3.87;86.57
77450;BME280;66536;53.150;18.172;2023-11-22T01:09:19;102339.69;;;-3.88;86.38
77450;BME280;66536;53.150;18.172;2023-11-22T01:11:48;102346.74;;;-3.87;86.44
77450;BME280;66536;53.150;18.172;2023-11-22T01:14:14;102345.23;;;-3.87;86.52
77450;BME280;66536;53.150;18.172;2023-11-22T01:16:41;102346.41;;;-3.87;86.49
77450;BME280;66536;53.150;18.172;2023-11-22T01:19:09;102351.27;;;-3.90;86.18
77450;BME280;66536;53.150;18.172;2023-11-22T01:21:36;102355.32;;;-3.94;86.31
77450;BME280;66536;53.150;18.172;2023-11-22T01:24:03;102363.17;;;-3.96;86.32
77450;BME280;66536;53.150;18.172;2023-11-22T01:26:30;102362.40;;;-3.97;86.43
77450;BME280;66536;53.150;18.172;2023-11-22T01:28:57;102364.71;;;-4.00;86.69
77450;BME280;66536;53.150;18.172;2023-11-22T01:31:24;102356.73;;;-4.02;86.85
77450;BME280;66536;53.150;18.172;2023-11-22T01:33:54;102344.92;;;-4.05;86.66
77450;BME280;66536;53.150;18.172;2023-11-22T01:36:21;102347.70;;;-4.07;86.70
77450;BME280;66536;53.150;18.172;2023-11-22T01:38:48;102357.05;;;-4.09;86.84
77450;BME280;66536;53.150;18.172;2023-11-22T01:41:15;102355.27;;;-4.11;86.88
77450;BME280;66536;53.150;18.172;2023-11-22T01:43:46;102346.60;;;-4.12;86.96
77450;BME280;66536;53.150;18.172;2023-11-22T01:46:21;102342.35;;;-4.15;86.87
77450;BME280;66536;53.150;18.172;2023-11-22T01:48:50;102353.20;;;-4.20;87.09
77450;BME280;66536;53.150;18.172;2023-11-22T01:51:20;102357.00;;;-4.22;87.39
77450;BME280;66536;53.150;18.172;2023-11-22T01:53:50;102358.18;;;-4.22;87.29
77450;BME280;66536;53.150;18.172;2023-11-22T01:56:21;102363.33;;;-4.24;87.22
77450;BME280;66536;53.150;18.172;2023-11-22T01:58:50;102372.23;;;-4.27;87.28
77450;BME280;66536;53.150;18.172;2023-11-22T02:01:18;102376.62;;;-4.31;87.45
77450;BME280;66536;53.150;18.172;2023-11-22T02:03:45;102383.55;;;-4.35;87.44
77450;BME280;66536;53.150;18.172;2023-11-22T02:06:15;102385.09;;;-4.39;87.42
77450;BME280;66536;53.150;18.172;2023-11-22T02:08:43;102389.14;;;-4.43;87.52
77450;BME280;66536;53.150;18.172;2023-11-22T02:11:10;102397.98;;;-4.45;87.59
77450;BME280;66536;53.150;18.172;2023-11-22T02:13:37;102400.41;;;-4.47;87.77
77450;BME280;66536;53.150;18.172;2023-11-22T02:16:04;102399.80;;;-4.48;87.84
77450;BME280;66536;53.150;18.172;2023-11-22T02:18:31;102403.61;;;-4.51;87.91
77450;BME280;66536;53.150;18.172;2023-11-22T02:20:58;102409.29;;;-4.53;87.86
77450;BME280;66536;53.150;18.172;2023-11-22T02:23:26;102403.20;;;-4.57;87.99
77450;BME280;66536;53.150;18.172;2023-11-22T02:25:53;102395.91;;;-4.59;87.93
77450;BME280;66536;53.150;18.172;2023-11-22T02:28:21;102404.90;;;-4.61;87.96
77450;BME280;66536;53.150;18.172;2023-11-22T02:30:48;102407.77;;;-4.61;88.11
77450;BME280;66536;53.150;18.172;2023-11-22T02:33:14;102410.71;;;-4.59;88.12
77450;BME280;66536;53.150;18.172;2023-11-22T02:35:41;102411.35;;;-4.58;88.16
77450;BME280;66536;53.150;18.172;2023-11-22T02:38:09;102413.67;;;-4.58;88.21
77450;BME280;66536;53.150;18.172;2023-11-22T02:40:38;102422.23;;;-4.56;88.10
77450;BME280;66536;53.150;18.172;2023-11-22T02:43:05;102425.59;;;-4.56;88.23
77450;BME280;66536;53.150;18.172;2023-11-22T02:45:35;102421.98;;;-4.54;88.20
77450;BME280;66536;53.150;18.172;2023-11-22T02:48:02;102429.72;;;-4.51;88.16
77450;BME280;66536;53.150;18.172;2023-11-22T02:50:30;102436.08;;;-4.46;88.25
77450;BME280;66536;53.150;18.172;2023-11-22T02:52:58;102431.98;;;-4.41;88.27
77450;BME280;66536;53.150;18.172;2023-11-22T02:55:26;102434.34;;;-4.37;88.08
77450;BME280;66536;53.150;18.172;2023-11-22T02:57:53;102441.52;;;-4.35;88.18
77450;BME280;66536;53.150;18.172;2023-11-22T03:00:20;102447.53;;;-4.31;88.20
77450;BME280;66536;53.150;18.172;2023-11-22T03:02:47;102453.31;;;-4.25;88.04
77450;BME280;66536;53.150;18.172;2023-11-22T03:05:18;102456.06;;;-4.18;87.88
77450;BME280;66536;53.150;18.172;2023-11-22T03:07:45;102461.55;;;-4.13;87.85
77450;BME280;66536;53.150;18.172;2023-11-22T03:10:12;102472.77;;;-4.08;87.94
77450;BME280;66536;53.150;18.172;2023-11-22T03:12:39;102472.71;;;-4.03;87.83
77450;BME280;66536;53.150;18.172;2023-11-22T03:15:07;102465.38;;;-3.97;87.70
77450;BME280;66536;53.150;18.172;2023-11-22T03:17:34;102464.83;;;-3.89;87.62
77450;BME280;66536;53.150;18.172;2023-11-22T03:20:01;102471.27;;;-3.82;87.43
77450;BME280;66536;53.150;18.172;2023-11-22T03:22:28;102466.74;;;-3.79;87.48
77450;BME280;66536;53.150;18.172;2023-11-22T03:24:56;102449.30;;;-3.77;87.38
77450;BME280;66536;53.150;18.172;2023-11-22T03:27:24;102438.83;;;-3.77;87.26
77450;BME280;66536;53.150;18.172;2023-11-22T03:29:52;102446.55;;;-3.77;87.37
77450;BME280;66536;53.150;18.172;2023-11-22T03:32:19;102455.24;;;-3.75;87.34
77450;BME280;66536;53.150;18.172;2023-11-22T03:34:46;102451.61;;;-3.73;87.34
77450;BME280;66536;53.150;18.172;2023-11-22T03:37:13;102457.52;;;-3.73;87.34
77450;BME280;66536;53.150;18.172;2023-11-22T03:39:40;102463.84;;;-3.75;87.47
77450;BME280;66536;53.150;18.172;2023-11-22T03:42:09;102454.52;;;-3.78;87.44
77450;BME280;66536;53.150;18.172;2023-11-22T03:44:37;102456.23;;;-3.78;87.49
77450;BME280;66536;53.150;18.172;2023-11-22T03:47:04;102461.14;;;-3.78;87.45
77450;BME280;66536;53.150;18.172;2023-11-22T03:49:31;102463.77;;;-3.80;87.51
77450;BME280;66536;53.150;18.172;2023-11-22T03:51:57;102470.38;;;-3.85;87.63
77450;BME280;66536;53.150;18.172;2023-11-22T03:54:24;102465.41;;;-3.90;87.65
77450;BME280;66536;53.150;18.172;2023-11-22T03:56:51;102467.54;;;-3.96;87.77
77450;BME280;66536;53.150;18.172;2023-11-22T03:59:18;102478.74;;;-4.01;87.89
77450;BME280;66536;53.150;18.172;2023-11-22T04:01:45;102468.52;;;-4.07;87.94
77450;BME280;66536;53.150;18.172;2023-11-22T04:04:12;102459.80;;;-4.12;88.02
77450;BME280;66536;53.150;18.172;2023-11-22T04:06:39;102458.34;;;-4.16;88.14
77450;BME280;66536;53.150;18.172;2023-11-22T04:09:07;102462.91;;;-4.21;88.41
77450;BME280;66536;53.150;18.172;2023-11-22T04:11:34;102470.19;;;-4.25;88.51
77450;BME280;66536;53.150;18.172;2023-11-22T04:14:02;102475.23;;;-4.29;88.42
77450;BME280;66536;53.150;18.172;2023-11-22T04:16:29;102478.64;;;-4.30;88.58
77450;BME280;66536;53.150;18.172;2023-11-22T04:18:56;102488.14;;;-4.31;88.50
77450;BME280;66536;53.150;18.172;2023-11-22T04:21:23;102508.61;;;-4.33;88.71
77450;BME280;66536;53.150;18.172;2023-11-22T04:23:50;102501.94;;;-4.34;88.90
77450;BME280;66536;53.150;18.172;2023-11-22T04:26:17;102492.52;;;-4.35;88.82
77450;BME280;66536;53.150;18.172;2023-11-22T04:28:46;102510.48;;;-4.33;88.87
77450;BME280;66536;53.150;18.172;2023-11-22T04:31:13;102518.61;;;-4.31;88.83
77450;BME280;66536;53.150;18.172;2023-11-22T04:33:42;102519.04;;;-4.29;88.90
77450;BME280;66536;53.150;18.172;2023-11-22T04:36:08;102526.30;;;-4.26;88.88
77450;BME280;66536;53.150;18.172;2023-11-22T04:38:35;102519.50;;;-4.24;88.83
77450;BME280;66536;53.150;18.172;2023-11-22T04:41:02;102523.43;;;-4.25;88.74
77450;BME280;66536;53.150;18.172;2023-11-22T04:43:29;102518.89;;;-4.26;88.76
77450;BME280;66536;53.150;18.172;2023-11-22T04:45:59;102525.08;;;-4.24;88.75
77450;BME280;66536;53.150;18.172;2023-11-22T04:48:25;102519.11;;;-4.23;88.74
77450;BME280;66536;53.150;18.172;2023-11-22T04:50:52;102524.42;;;-4.21;88.72
77450;BME280;66536;53.150;18.172;2023-11-22T04:53:19;102528.55;;;-4.23;88.60
77450;BME280;66536;53.150;18.172;2023-11-22T04:55:46;102532.04;;;-4.25;88.72
77450;BME280;66536;53.150;18.172;2023-11-22T04:58:12;102534.13;;;-4.27;88.83
77450;BME280;66536;53.150;18.172;2023-11-22T05:00:39;102539.90;;;-4.28;88.86
77450;BME280;66536;53.150;18.172;2023-11-22T05:03:06;102546.47;;;-4.28;88.95
77450;BME280;66536;53.150;18.172;2023-11-22T05:05:33;102543.72;;;-4.27;89.04
77450;BME280;66536;53.150;18.172;2023-11-22T05:07:59;102541.06;;;-4.28;89.02
77450;BME280;66536;53.150;18.172;2023-11-22T05:10:26;102546.86;;;-4.29;89.11
77450;BME280;66536;53.150;18.172;2023-11-22T05:12:53;102553.54;;;-4.32;89.05
77450;BME280;66536;53.150;18.172;2023-11-22T05:15:21;102560.70;;;-4.34;89.09
77450;BME280;66536;53.150;18.172;2023-11-22T05:17:48;102570.48;;;-4.34;89.15
77450;BME280;66536;53.150;18.172;2023-11-22T05:20:15;102572.75;;;-4.32;89.26
77450;BME280;66536;53.150;18.172;2023-11-22T05:22:42;102570.12;;;-4.30;89.15
77450;BME280;66536;53.150;18.172;2023-11-22T05:25:09;102574.45;;;-4.29;89.06
77450;BME280;66536;53.150;18.172;2023-11-22T05:27:35;102578.35;;;-4.29;88.93
77450;BME280;66536;53.150;18.172;2023-11-22T05:30:02;102582.73;;;-4.29;89.03
77450;BME280;66536;53.150;18.172;2023-11-22T05:32:31;102584.08;;;-4.29;88.91
77450;BME280;66536;53.150;18.172;2023-11-22T05:34:57;102586.12;;;-4.29;88.66
77450;BME280;66536;53.150;18.172;2023-11-22T05:37:24;102588.89;;;-4.27;88.79
77450;BME280;66536;53.150;18.172;2023-11-22T05:39:51;102593.08;;;-4.23;88.85
77450;BME280;66536;53.150;18.172;2023-11-22T05:42:18;102595.20;;;-4.21;88.68
77450;BME280;66536;53.150;18.172;2023-11-22T05:44:45;102592.02;;;-4.22;88.65
77450;BME280;66536;53.150;18.172;2023-11-22T05:47:11;102589.08;;;-4.24;88.71
77450;BME280;66536;53.150;18.172;2023-11-22T05:49:39;102584.63;;;-4.26;88.55
77450;BME280;66536;53.150;18.172;2023-11-22T05:52:06;102583.88;;;-4.28;88.61
77450;BME280;66536;53.150;18.172;2023-11-22T05:54:33;102587.86;;;-4.27;88.74
77450;BME280;66536;53.150;18.172;2023-11-22T05:57:00;102586.17;;;-4.23;88.73
77450;BME280;66536;53.150;18.172;2023-11-22T05:59:26;102579.49;;;-4.17;88.77
77450;BME280;66536;53.150;18.172;2023-11-22T06:01:53;102582.48;;;-4.11;88.77
77450;BME280;66536;53.150;18.172;2023-11-22T06:04:20;102591.72;;;-4.07;88.55
77450;BME280;66536;53.150;18.172;2023-11-22T06:06:47;102597.80;;;-4.03;88.43
77450;BME280;66536;53.150;18.172;2023-11-22T06:09:14;102597.35;;;-4.00;88.17
77450;BME280;66536;53.150;18.172;2023-11-22T06:11:41;102597.31;;;-3.96;88.27
77450;BME280;66536;53.150;18.172;2023-11-22T06:14:07;102597.89;;;-3.90;88.35
77450;BME280;66536;53.150;18.172;2023-11-22T06:16:34;102600.42;;;-3.82;88.34
77450;BME280;66536;53.150;18.172;2023-11-22T06:19:02;102606.52;;;-3.75;88.19
77450;BME280;66536;53.150;18.172;2023-11-22T06:21:29;102611.34;;;-3.70;88.17
77450;BME280;66536;53.150;18.172;2023-11-22T06:23:56;102613.87;;;-3.66;88.03
77450;BME280;66536;53.150;18.172;2023-11-22T06:26:24;102616.44;;;-3.63;87.68
77450;BME280;66536;53.150;18.172;2023-11-22T06:28:51;102623.63;;;-3.62;87.62
77450;BME280;66536;53.150;18.172;2023-11-22T06:31:18;102628.43;;;-3.60;87.76
77450;BME280;66536;53.150;18.172;2023-11-22T06:33:45;102627.73;;;-3.56;87.63
77450;BME280;66536;53.150;18.172;2023-11-22T06:36:13;102622.70;;;-3.53;87.54
77450;BME280;66536;53.150;18.172;2023-11-22T06:38:41;102629.88;;;-3.51;87.57
77450;BME280;66536;53.150;18.172;2023-11-22T06:41:08;102634.34;;;-3.49;87.65
77450;BME280;66536;53.150;18.172;2023-11-22T06:43:35;102632.78;;;-3.48;87.59
77450;BME280;66536;53.150;18.172;2023-11-22T06:46:02;102630.54;;;-3.47;87.58
77450;BME280;66536;53.150;18.172;2023-11-22T06:48:33;102638.02;;;-3.48;87.61
77450;BME280;66536;53.150;18.172;2023-11-22T06:51:00;102639.33;;;-3.48;87.53
77450;BME280;66536;53.150;18.172;2023-11-22T06:53:27;102643.27;;;-3.48;87.39
77450;BME280;66536;53.150;18.172;2023-11-22T06:55:54;102645.84;;;-3.53;87.49
77450;BME280;66536;53.150;18.172;2023-11-22T06:58:21;102651.89;;;-3.56;87.57
77450;BME280;66536;53.150;18.172;2023-11-22T07:00:48;102659.64;;;-3.60;87.55
77450;BME280;66536;53.150;18.172;2023-11-22T07:03:15;102664.80;;;-3.62;87.70
77450;BME280;66536;53.150;18.172;2023-11-22T07:05:44;102666.39;;;-3.64;87.52
77450;BME280;66536;53.150;18.172;2023-11-22T07:08:11;102664.28;;;-3.70;87.62
77450;BME280;66536;53.150;18.172;2023-11-22T07:10:39;102671.84;;;-3.73;87.65
77450;BME280;66536;53.150;18.172;2023-11-22T07:13:06;102676.96;;;-3.74;87.87
77450;BME280;66536;53.150;18.172;2023-11-22T07:15:33;102679.30;;;-3.74;87.96
77450;BME280;66536;53.150;18.172;2023-11-22T07:18:00;102685.48;;;-3.72;87.87
77450;BME280;66536;53.150;18.172;2023-11-22T07:20:27;102687.59;;;-3.75;87.65
77450;BME280;66536;53.150;18.172;2023-11-22T07:22:54;102689.60;;;-3.78;87.72
77450;BME280;66536;53.150;18.172;2023-11-22T07:25:24;102697.20;;;-3.78;87.90
77450;BME280;66536;53.150;18.172;2023-11-22T07:27:52;102703.54;;;-3.77;88.09
77450;BME280;66536;53.150;18.172;2023-11-22T07:30:20;102702.73;;;-3.73;88.08
77450;BME280;66536;53.150;18.172;2023-11-22T07:32:50;102709.80;;;-3.69;88.04
77450;BME280;66536;53.150;18.172;2023-11-22T07:35:18;102703.46;;;-3.67;87.97
77450;BME280;66536;53.150;18.172;2023-11-22T07:37:46;102709.41;;;-3.64;87.90
77450;BME280;66536;53.150;18.172;2023-11-22T07:40:14;102710.55;;;-3.63;87.80
77450;BME280;66536;53.150;18.172;2023-11-22T07:42:41;102714.05;;;-3.62;87.82
77450;BME280;66536;53.150;18.172;2023-11-22T07:45:10;102718.23;;;-3.61;87.71
77450;BME280;66536;53.150;18.172;2023-11-22T07:47:38;102714.78;;;-3.60;87.80
77450;BME280;66536;53.150;18.172;2023-11-22T07:50:08;102716.28;;;-3.55;87.89
77450;BME280;66536;53.150;18.172;2023-11-22T07:52:35;102720.20;;;-3.52;87.80
77450;BME280;66536;53.150;18.172;2023-11-22T07:55:04;102734.94;;;-3.46;87.89
77450;BME280;66536;53.150;18.172;2023-11-22T07:57:34;102746.27;;;-3.39;87.78
77450;BME280;66536;53.150;18.172;2023-11-22T08:00:02;102751.61;;;-3.30;87.81
77450;BME280;66536;53.150;18.172;2023-11-22T08:02:38;102745.70;;;-3.19;87.70
77450;BME280;66536;53.150;18.172;2023-11-22T08:05:06;102732.71;;;-3.08;87.68
77450;BME280;66536;53.150;18.172;2023-11-22T08:07:36;102725.34;;;-2.97;87.51
77450;BME280;66536;53.150;18.172;2023-11-22T08:10:08;102721.75;;;-2.89;87.46
77450;BME280;66536;53.150;18.172;2023-11-22T08:12:36;102706.16;;;-2.84;87.21
77450;BME280;66536;53.150;18.172;2023-11-22T08:15:04;102691.63;;;-2.80;87.07
77450;BME280;66536;53.150;18.172;2023-11-22T08:17:32;102687.12;;;-2.75;87.23
77450;BME280;66536;53.150;18.172;2023-11-22T08:19:59;102694.59;;;-2.68;87.05
77450;BME280;66536;53.150;18.172;2023-11-22T08:22:27;102698.90;;;-2.63;86.91
77450;BME280;66536;53.150;18.172;2023-11-22T08:24:55;102697.98;;;-2.54;86.99
77450;BME280;66536;53.150;18.172;2023-11-22T08:27:23;102701.10;;;-2.46;87.04
77450;BME280;66536;53.150;18.172;2023-11-22T08:29:50;102693.94;;;-2.37;87.10
77450;BME280;66536;53.150;18.172;2023-11-22T08:32:17;102691.02;;;-2.29;87.20
77450;BME280;66536;53.150;18.172;2023-11-22T08:34:47;102689.84;;;-2.22;87.11
77450;BME280;66536;53.150;18.172;2023-11-22T08:37:14;102698.92;;;-2.15;87.13
77450;BME280;66536;53.150;18.172;2023-11-22T08:39:41;102703.90;;;-2.06;87.01
77450;BME280;66536;53.150;18.172;2023-11-22T08:42:08;102699.89;;;-1.97;86.77
77450;BME280;66536;53.150;18.172;2023-11-22T08:44:36;102709.06;;;-1.87;86.56
77450;BME280;66536;53.150;18.172;2023-11-22T08:47:03;102708.77;;;-1.79;86.31
77450;BME280;66536;53.150;18.172;2023-11-22T08:49:31;102694.65;;;-1.71;85.83
77450;BME280;66536;53.150;18.172;2023-11-22T08:51:58;102695.94;;;-1.62;85.69
77450;BME280;66536;53.150;18.172;2023-11-22T08:54:26;102706.54;;;-1.55;85.34
77450;BME280;66536;53.150;18.172;2023-11-22T08:56:55;102709.52;;;-1.47;85.13
77450;BME280;66536;53.150;18.172;2023-11-22T08:59:23;102703.80;;;-1.38;84.83
77450;BME280;66536;53.150;18.172;2023-11-22T09:01:49;102702.52;;;-1.30;84.59
77450;BME280;66536;53.150;18.172;2023-11-22T09:04:18;102701.80;;;-1.20;84.45
77450;BME280;66536;53.150;18.172;2023-11-22T09:06:45;102699.09;;;-1.11;84.14
77450;BME280;66536;53.150;18.172;2023-11-22T09:09:13;102698.63;;;-1.02;83.95
77450;BME280;66536;53.150;18.172;2023-11-22T09:11:42;102701.02;;;-0.92;83.43
77450;BME280;66536;53.150;18.172;2023-11-22T09:14:09;102701.77;;;-0.84;83.01
77450;BME280;66536;53.150;18.172;2023-11-22T09:16:37;102700.26;;;-0.76;82.67
77450;BME280;66536;53.150;18.172;2023-11-22T09:19:05;102698.60;;;-0.68;82.64
77450;BME280;66536;53.150;18.172;2023-11-22T09:21:34;102696.25;;;-0.59;82.45
77450;BME280;66536;53.150;18.172;2023-11-22T09:24:01;102696.92;;;-0.52;81.97
77450;BME280;66536;53.150;18.172;2023-11-22T09:26:29;102690.90;;;-0.54;81.81
77450;BME280;66536;53.150;18.172;2023-11-22T09:28:56;102682.45;;;-0.48;82.16
77450;BME280;66536;53.150;18.172;2023-11-22T09:31:22;102679.05;;;-0.39;82.29
77450;BME280;66536;53.150;18.172;2023-11-22T09:33:50;102681.41;;;-0.30;82.11
77450;BME280;66536;53.150;18.172;2023-11-22T09:36:17;102689.55;;;-0.24;80.90
77450;BME280;66536;53.150;18.172;2023-11-22T09:38:44;102694.15;;;-0.25;80.97
77450;BME280;66536;53.150;18.172;2023-11-22T09:41:11;102691.32;;;-0.20;81.32
77450;BME280;66536;53.150;18.172;2023-11-22T09:43:38;102688.52;;;-0.12;80.92
77450;BME280;66536;53.150;18.172;2023-11-22T09:46:08;102687.15;;;-0.10;80.41
77450;BME280;66536;53.150;18.172;2023-11-22T09:48:39;102687.80;;;-0.06;79.56
77450;BME280;66536;53.150;18.172;2023-11-22T09:53:57;102686.67;;;0.16;79.75
77450;BME280;66536;53.150;18.172;2023-11-22T09:56:27;102683.35;;;0.29;79.31
77450;BME280;66536;53.150;18.172;2023-11-22T09:59:31;102689.55;;;0.44;78.86
77450;BME280;66536;53.150;18.172;2023-11-22T10:02:00;102686.77;;;0.59;78.22
77450;BME280;66536;53.150;18.172;2023-11-22T10:04:26;102687.75;;;0.71;77.95
77450;BME280;66536;53.150;18.172;2023-11-22T10:06:56;102682.86;;;0.79;76.78
77450;BME280;66536;53.150;18.172;2023-11-22T10:09:25;102683.96;;;0.94;76.42
77450;BME280;66536;53.150;18.172;2023-11-22T10:11:58;102688.33;;;1.14;76.83
77450;BME280;66536;53.150;18.172;2023-11-22T10:14:27;102686.66;;;1.29;76.86
77450;BME280;66536;53.150;18.172;2023-11-22T10:16:59;102679.65;;;1.40;76.93
77450;BME280;66536;53.150;18.172;2023-11-22T10:19:27;102678.86;;;1.42;77.07
77450;BME280;66536;53.150;18.172;2023-11-22T10:22:03;102679.14;;;1.43;77.13
77450;BME280;66536;53.150;18.172;2023-11-22T10:24:32;102680.84;;;1.40;77.08
77450;BME280;66536;53.150;18.172;2023-11-22T10:27:02;102684.77;;;1.34;77.26
77450;BME280;66536;53.150;18.172;2023-11-22T10:29:32;102686.27;;;1.29;77.20
77450;BME280;66536;53.150;18.172;2023-11-22T10:32:05;102686.68;;;1.23;77.14
77450;BME280;66536;53.150;18.172;2023-11-22T10:34:39;102676.69;;;1.17;77.09
77450;BME280;66536;53.150;18.172;2023-11-22T10:37:09;102672.04;;;1.13;77.32
77450;BME280;66536;53.150;18.172;2023-11-22T10:39:36;102672.29;;;1.12;77.56
77450;BME280;66536;53.150;18.172;2023-11-22T10:42:05;102664.75;;;1.13;77.22
77450;BME280;66536;53.150;18.172;2023-11-22T10:44:34;102662.28;;;1.17;76.94
77450;BME280;66536;53.150;18.172;2023-11-22T10:47:06;102656.36;;;1.21;77.07
77450;BME280;66536;53.150;18.172;2023-11-22T10:49:33;102651.21;;;1.30;76.96
77450;BME280;66536;53.150;18.172;2023-11-22T10:52:01;102651.44;;;1.42;76.90
77450;BME280;66536;53.150;18.172;2023-11-22T10:54:33;102653.27;;;1.56;76.78
77450;BME280;66536;53.150;18.172;2023-11-22T10:57:03;102656.49;;;1.69;75.88
77450;BME280;66536;53.150;18.172;2023-11-22T10:59:32;102658.27;;;1.83;75.68
77450;BME280;66536;53.150;18.172;2023-11-22T11:02:01;102653.94;;;1.99;75.60
77450;BME280;66536;53.150;18.172;2023-11-22T11:04:34;102649.41;;;2.13;74.26
77450;BME280;66536;53.150;18.172;2023-11-22T11:07:08;102655.39;;;2.30;74.84
77450;BME280;66536;53.150;18.172;2023-11-22T11:09:43;102649.24;;;2.50;74.30
77450;BME280;66536;53.150;18.172;2023-11-22T11:12:12;102645.74;;;2.54;74.47
77450;BME280;66536;53.150;18.172;2023-11-22T11:14:39;102639.13;;;2.56;74.09
77450;BME280;66536;53.150;18.172;2023-11-22T11:17:08;102636.63;;;2.57;73.59
77450;BME280;66536;53.150;18.172;2023-11-22T11:19:36;102631.32;;;2.58;73.40
77450;BME280;66536;53.150;18.172;2023-11-22T11:22:03;102633.77;;;2.54;73.57
77450;BME280;66536;53.150;18.172;2023-11-22T11:24:38;102633.36;;;2.53;73.29
77450;BME280;66536;53.150;18.172;2023-11-22T11:27:06;102636.20;;;2.56;73.29
77450;BME280;66536;53.150;18.172;2023-11-22T11:29:35;102644.54;;;2.56;73.16
77450;BME280;66536;53.150;18.172;2023-11-22T11:32:11;102652.29;;;2.62;72.33
77450;BME280;66536;53.150;18.172;2023-11-22T11:34:47;102646.64;;;2.75;71.53
77450;BME280;66536;53.150;18.172;2023-11-22T11:37:24;102638.13;;;2.80;70.84
77450;BME280;66536;53.150;18.172;2023-11-22T11:39:51;102643.17;;;2.76;70.48
77450;BME280;66536;53.150;18.172;2023-11-22T11:42:23;102642.94;;;2.71;71.20
77450;BME280;66536;53.150;18.172;2023-11-22T11:45:06;102646.66;;;2.74;69.80
77450;BME280;66536;53.150;18.172;2023-11-22T11:47:35;102647.71;;;2.79;70.23
77450;BME280;66536;53.150;18.172;2023-11-22T11:50:02;102643.10;;;2.93;70.18
77450;BME280;66536;53.150;18.172;2023-11-22T11:52:31;102638.14;;;3.17;69.90
77450;BME280;66536;53.150;18.172;2023-11-22T11:54:57;102628.59;;;3.24;68.82
77450;BME280;66536;53.150;18.172;2023-11-22T11:57:25;102625.39;;;3.33;69.70
77450;BME280;66536;53.150;18.172;2023-11-22T12:00:00;102625.23;;;3.42;69.29
77450;BME280;66536;53.150;18.172;2023-11-22T12:05:43;102618.14;;;3.39;66.16
77450;BME280;66536;53.150;18.172;2023-11-22T12:08:13;102620.48;;;3.33;65.82
77450;BME280;66536;53.150;18.172;2023-11-22T12:10:44;102610.00;;;3.31;67.29
77450;BME280;66536;53.150;18.172;2023-11-22T12:13:18;102606.06;;;3.36;66.59
77450;BME280;66536;53.150;18.172;2023-11-22T12:15:47;102605.27;;;3.37;66.84
77450;BME280;66536;53.150;18.172;2023-11-22T12:18:16;102608.63;;;3.40;67.29
77450;BME280;66536;53.150;18.172;2023-11-22T12:20:53;102603.14;;;3.41;67.03
77450;BME280;66536;53.150;18.172;2023-11-22T12:23:27;102591.76;;;3.36;67.89
77450;BME280;66536;53.150;18.172;2023-11-22T12:25:58;102593.48;;;3.29;68.10
77450;BME280;66536;53.150;18.172;2023-11-22T12:28:29;102589.61;;;3.19;68.79
77450;BME280;66536;53.150;18.172;2023-11-22T12:31:07;102593.41;;;3.08;69.34
77450;BME280;66536;53.150;18.172;2023-11-22T12:33:37;102587.38;;;2.95;68.31
77450;BME280;66536;53.150;18.172;2023-11-22T12:36:07;102584.34;;;2.81;67.03
77450;BME280;66536;53.150;18.172;2023-11-22T12:38:37;102585.91;;;2.69;67.70
77450;BME280;66536;53.150;18.172;2023-11-22T12:41:06;102579.67;;;2.63;68.27
77450;BME280;66536;53.150;18.172;2023-11-22T12:43:34;102571.50;;;2.58;68.09
77450;BME280;66536;53.150;18.172;2023-11-22T12:46:05;102570.41;;;2.49;66.65
77450;BME280;66536;53.150;18.172;2023-11-22T12:48:34;102572.11;;;2.38;67.27
77450;BME280;66536;53.150;18.172;2023-11-22T12:51:14;102575.05;;;2.32;67.93
77450;BME280;66536;53.150;18.172;2023-11-22T12:53:45;102575.06;;;2.30;68.10